sensor_id;sensor_type;location;lat;lon;timestamp;P1;durP1;ratioP1;P2;durP2;ratioP2
11139;SDS011;5624;49.388;11.350;2023-04-25T00:01:38;6.40;;;4.10;;
11139;SDS011;5624;49.388;11.350;2023-04-25T00:04:03;5.93;;;3.73;;
11139;SDS011;5624;49.388;11.350;2023-04-25T00:06:31;5.40;;;4.07;;
11139;SDS011;5624;49.388;11.350;2023-04-25T00:08:57;5.17;;;4.23;;
11139;SDS011;5624;49.388;11.350;2023-04-25T00:11:23;5.77;;;3.90;;
11139;SDS011;5624;49.388;11.350;2023-04-25T00:13:49;6.73;;;3.60;;
11139;SDS011;5624;49.388;11.350;2023-04-25T00:16:17;5.20;;;3.97;;
11139;SDS011;5624;49.388;11.350;2023-04-25T00:18:43;7.60;;;3.63;;
11139;SDS011;5624;49.388;11.350;2023-04-25T00:21:11;5.33;;;4.00;;
11139;SDS011;5624;49.388;11.350;2023-04-25T00:23:36;5.13;;;3.77;;
11139;SDS011;5624;49.388;11.350;2023-04-25T00:26:03;6.80;;;3.90;;
11139;SDS011;5624;49.388;11.350;2023-04-25T00:28:29;6.60;;;3.30;;
11139;SDS011;5624;49.388;11.350;2023-04-25T00:30:55;11.47;;;4.00;;
11139;SDS011;5624;49.388;11.350;2023-04-25T00:33:21;5.87;;;3.70;;
11139;SDS011;5624;49.388;11.350;2023-04-25T00:35:46;4.87;;;3.77;;
11139;SDS011;5624;49.388;11.350;2023-04-25T00:38:12;4.27;;;3.53;;
11139;SDS011;5624;49.388;11.350;2023-04-25T00:40:37;6.70;;;4.63;;
11139;SDS011;5624;49.388;11.350;2023-04-25T00:43:04;5.20;;;3.60;;
11139;SDS011;5624;49.388;11.350;2023-04-25T00:45:30;4.87;;;3.87;;
11139;SDS011;5624;49.388;11.350;2023-04-25T00:47:56;5.10;;;3.43;;
11139;SDS011;5624;49.388;11.350;2023-04-25T00:50:22;4.87;;;3.73;;
11139;SDS011;5624;49.388;11.350;2023-04-25T00:52:48;5.33;;;3.67;;
11139;SDS011;5624;49.388;11.350;2023-04-25T00:55:14;4.17;;;3.50;;
11139;SDS011;5624;49.388;11.350;2023-04-25T00:57:40;4.20;;;3.60;;
11139;SDS011;5624;49.388;11.350;2023-04-25T01:00:07;5.53;;;3.87;;
11139;SDS011;5624;49.388;11.350;2023-04-25T01:02:35;4.97;;;3.73;;
11139;SDS011;5624;49.388;11.350;2023-04-25T01:05:02;5.17;;;3.53;;
11139;SDS011;5624;49.388;11.350;2023-04-25T01:07:28;6.20;;;3.77;;
11139;SDS011;5624;49.388;11.350;2023-04-25T01:09:55;4.43;;;3.60;;
11139;SDS011;5624;49.388;11.350;2023-04-25T01:12:21;8.93;;;3.67;;
11139;SDS011;5624;49.388;11.350;2023-04-25T01:14:46;5.73;;;3.50;;
11139;SDS011;5624;49.388;11.350;2023-04-25T01:17:12;5.00;;;3.37;;
11139;SDS011;5624;49.388;11.350;2023-04-25T01:19:38;6.27;;;3.67;;
11139;SDS011;5624;49.388;11.350;2023-04-25T01:22:04;5.20;;;4.07;;
11139;SDS011;5624;49.388;11.350;2023-04-25T01:24:33;5.83;;;3.90;;
11139;SDS011;5624;49.388;11.350;2023-04-25T01:26:59;4.70;;;3.27;;
11139;SDS011;5624;49.388;11.350;2023-04-25T01:29:26;6.10;;;4.13;;
11139;SDS011;5624;49.388;11.350;2023-04-25T01:31:53;6.30;;;3.93;;
11139;SDS011;5624;49.388;11.350;2023-04-25T01:34:19;4.80;;;3.80;;
11139;SDS011;5624;49.388;11.350;2023-04-25T01:36:44;5.13;;;3.77;;
11139;SDS011;5624;49.388;11.350;2023-04-25T01:39:12;6.97;;;3.93;;
11139;SDS011;5624;49.388;11.350;2023-04-25T01:41:38;4.63;;;3.60;;
11139;SDS011;5624;49.388;11.350;2023-04-25T01:44:04;5.23;;;4.17;;
11139;SDS011;5624;49.388;11.350;2023-04-25T01:46:30;6.53;;;4.13;;
11139;SDS011;5624;49.388;11.350;2023-04-25T01:48:56;6.23;;;3.97;;
11139;SDS011;5624;49.388;11.350;2023-04-25T01:51:21;6.80;;;3.87;;
11139;SDS011;5624;49.388;11.350;2023-04-25T01:53:47;7.50;;;4.20;;
11139;SDS011;5624;49.388;11.350;2023-04-25T01:56:13;5.67;;;4.33;;
11139;SDS011;5624;49.388;11.350;2023-04-25T01:58:38;6.20;;;4.20;;
11139;SDS011;5624;49.388;11.350;2023-04-25T02:01:04;8.37;;;4.80;;
11139;SDS011;5624;49.388;11.350;2023-04-25T02:03:30;5.80;;;3.93;;
11139;SDS011;5624;49.388;11.350;2023-04-25T02:05:56;8.03;;;4.20;;
11139;SDS011;5624;49.388;11.350;2023-04-25T02:08:22;5.33;;;4.23;;
11139;SDS011;5624;49.388;11.350;2023-04-25T02:10:48;5.57;;;4.27;;
11139;SDS011;5624;49.388;11.350;2023-04-25T02:13:13;5.73;;;4.37;;
11139;SDS011;5624;49.388;11.350;2023-04-25T02:15:39;5.53;;;4.30;;
11139;SDS011;5624;49.388;11.350;2023-04-25T02:18:06;6.40;;;4.67;;
11139;SDS011;5624;49.388;11.350;2023-04-25T02:20:31;5.77;;;4.63;;
11139;SDS011;5624;49.388;11.350;2023-04-25T02:22:57;6.20;;;4.70;;
11139;SDS011;5624;49.388;11.350;2023-04-25T02:25:23;7.17;;;4.93;;
11139;SDS011;5624;49.388;11.350;2023-04-25T02:27:48;6.67;;;4.87;;
11139;SDS011;5624;49.388;11.350;2023-04-25T02:30:16;7.00;;;4.57;;
11139;SDS011;5624;49.388;11.350;2023-04-25T02:32:41;5.80;;;4.73;;
11139;SDS011;5624;49.388;11.350;2023-04-25T02:35:07;6.97;;;4.80;;
11139;SDS011;5624;49.388;11.350;2023-04-25T02:37:33;7.00;;;4.90;;
11139;SDS011;5624;49.388;11.350;2023-04-25T02:40:00;6.10;;;4.70;;
11139;SDS011;5624;49.388;11.350;2023-04-25T02:42:26;6.40;;;4.73;;
11139;SDS011;5624;49.388;11.350;2023-04-25T02:44:52;7.10;;;5.30;;
11139;SDS011;5624;49.388;11.350;2023-04-25T02:47:18;6.07;;;4.53;;
11139;SDS011;5624;49.388;11.350;2023-04-25T02:49:44;5.07;;;4.13;;
11139;SDS011;5624;49.388;11.350;2023-04-25T02:52:10;5.90;;;4.13;;
11139;SDS011;5624;49.388;11.350;2023-04-25T02:54:36;6.47;;;4.37;;
11139;SDS011;5624;49.388;11.350;2023-04-25T02:57:01;8.90;;;4.97;;
11139;SDS011;5624;49.388;11.350;2023-04-25T02:59:27;5.83;;;4.50;;
11139;SDS011;5624;49.388;11.350;2023-04-25T03:01:53;6.83;;;4.60;;
11139;SDS011;5624;49.388;11.350;2023-04-25T03:04:19;6.67;;;4.80;;
11139;SDS011;5624;49.388;11.350;2023-04-25T03:06:45;7.47;;;4.23;;
11139;SDS011;5624;49.388;11.350;2023-04-25T03:09:11;6.00;;;4.20;;
11139;SDS011;5624;49.388;11.350;2023-04-25T03:11:38;6.53;;;4.93;;
11139;SDS011;5624;49.388;11.350;2023-04-25T03:14:04;5.43;;;4.27;;
11139;SDS011;5624;49.388;11.350;2023-04-25T03:16:29;6.03;;;4.63;;
11139;SDS011;5624;49.388;11.350;2023-04-25T03:18:55;6.40;;;4.57;;
11139;SDS011;5624;49.388;11.350;2023-04-25T03:21:21;6.60;;;4.43;;
11139;SDS011;5624;49.388;11.350;2023-04-25T03:23:47;7.07;;;4.70;;
11139;SDS011;5624;49.388;11.350;2023-04-25T03:26:13;7.70;;;4.83;;
11139;SDS011;5624;49.388;11.350;2023-04-25T03:28:38;5.87;;;4.60;;
11139;SDS011;5624;49.388;11.350;2023-04-25T03:31:05;6.67;;;4.83;;
11139;SDS011;5624;49.388;11.350;2023-04-25T03:33:31;6.07;;;4.63;;
11139;SDS011;5624;49.388;11.350;2023-04-25T03:35:56;7.23;;;5.73;;
11139;SDS011;5624;49.388;11.350;2023-04-25T03:38:22;7.50;;;4.83;;
11139;SDS011;5624;49.388;11.350;2023-04-25T03:40:48;6.77;;;4.70;;
11139;SDS011;5624;49.388;11.350;2023-04-25T03:43:15;6.17;;;4.87;;
11139;SDS011;5624;49.388;11.350;2023-04-25T03:45:41;7.37;;;4.87;;
11139;SDS011;5624;49.388;11.350;2023-04-25T03:48:06;7.23;;;4.93;;
11139;SDS011;5624;49.388;11.350;2023-04-25T03:50:32;8.53;;;4.93;;
11139;SDS011;5624;49.388;11.350;2023-04-25T03:52:58;7.63;;;5.60;;
11139;SDS011;5624;49.388;11.350;2023-04-25T03:55:23;9.40;;;5.53;;
11139;SDS011;5624;49.388;11.350;2023-04-25T03:57:49;6.97;;;4.80;;
11139;SDS011;5624;49.388;11.350;2023-04-25T04:00:14;6.40;;;4.60;;
11139;SDS011;5624;49.388;11.350;2023-04-25T04:02:40;9.93;;;4.90;;
11139;SDS011;5624;49.388;11.350;2023-04-25T04:05:06;7.03;;;5.03;;
11139;SDS011;5624;49.388;11.350;2023-04-25T04:07:32;6.53;;;4.70;;
11139;SDS011;5624;49.388;11.350;2023-04-25T04:09:58;6.07;;;4.30;;
11139;SDS011;5624;49.388;11.350;2023-04-25T04:12:24;7.10;;;4.90;;
11139;SDS011;5624;49.388;11.350;2023-04-25T04:14:49;7.17;;;4.37;;
11139;SDS011;5624;49.388;11.350;2023-04-25T04:17:15;6.60;;;5.07;;
11139;SDS011;5624;49.388;11.350;2023-04-25T04:19:41;7.37;;;5.30;;
11139;SDS011;5624;49.388;11.350;2023-04-25T04:22:06;8.67;;;4.50;;
11139;SDS011;5624;49.388;11.350;2023-04-25T04:24:32;9.63;;;4.63;;
11139;SDS011;5624;49.388;11.350;2023-04-25T04:26:58;5.77;;;5.07;;
11139;SDS011;5624;49.388;11.350;2023-04-25T04:29:24;6.97;;;5.17;;
11139;SDS011;5624;49.388;11.350;2023-04-25T04:31:50;4.67;;;3.63;;
11139;SDS011;5624;49.388;11.350;2023-04-25T04:34:18;8.87;;;4.20;;
11139;SDS011;5624;49.388;11.350;2023-04-25T04:36:45;4.60;;;3.70;;
11139;SDS011;5624;49.388;11.350;2023-04-25T04:39:13;6.33;;;4.60;;
11139;SDS011;5624;49.388;11.350;2023-04-25T04:41:39;6.27;;;4.43;;
11139;SDS011;5624;49.388;11.350;2023-04-25T04:44:05;5.40;;;4.20;;
11139;SDS011;5624;49.388;11.350;2023-04-25T04:46:31;6.07;;;3.77;;
11139;SDS011;5624;49.388;11.350;2023-04-25T04:49:03;5.43;;;3.70;;
11139;SDS011;5624;49.388;11.350;2023-04-25T04:51:31;7.37;;;4.07;;
11139;SDS011;5624;49.388;11.350;2023-04-25T04:53:57;4.13;;;3.40;;
11139;SDS011;5624;49.388;11.350;2023-04-25T04:56:27;5.37;;;3.43;;
11139;SDS011;5624;49.388;11.350;2023-04-25T04:58:56;5.63;;;3.80;;
11139;SDS011;5624;49.388;11.350;2023-04-25T05:01:22;4.90;;;3.40;;
11139;SDS011;5624;49.388;11.350;2023-04-25T05:03:48;6.47;;;3.80;;
11139;SDS011;5624;49.388;11.350;2023-04-25T05:06:14;7.30;;;3.97;;
11139;SDS011;5624;49.388;11.350;2023-04-25T05:08:41;6.23;;;4.17;;
11139;SDS011;5624;49.388;11.350;2023-04-25T05:11:07;5.10;;;3.73;;
11139;SDS011;5624;49.388;11.350;2023-04-25T05:13:32;7.20;;;4.10;;
11139;SDS011;5624;49.388;11.350;2023-04-25T05:15:58;7.60;;;4.33;;
11139;SDS011;5624;49.388;11.350;2023-04-25T05:18:23;5.07;;;4.00;;
11139;SDS011;5624;49.388;11.350;2023-04-25T05:20:49;6.77;;;4.33;;
11139;SDS011;5624;49.388;11.350;2023-04-25T05:23:14;6.10;;;3.80;;
11139;SDS011;5624;49.388;11.350;2023-04-25T05:25:41;6.13;;;4.60;;
11139;SDS011;5624;49.388;11.350;2023-04-25T05:28:10;6.77;;;4.60;;
11139;SDS011;5624;49.388;11.350;2023-04-25T05:30:39;5.50;;;4.03;;
11139;SDS011;5624;49.388;11.350;2023-04-25T05:33:05;6.03;;;4.10;;
11139;SDS011;5624;49.388;11.350;2023-04-25T05:35:31;7.20;;;5.03;;
11139;SDS011;5624;49.388;11.350;2023-04-25T05:37:57;9.10;;;5.27;;
11139;SDS011;5624;49.388;11.350;2023-04-25T05:40:22;7.40;;;4.70;;
11139;SDS011;5624;49.388;11.350;2023-04-25T05:42:48;5.70;;;4.60;;
11139;SDS011;5624;49.388;11.350;2023-04-25T05:45:14;5.93;;;4.53;;
11139;SDS011;5624;49.388;11.350;2023-04-25T05:47:39;7.17;;;4.53;;
11139;SDS011;5624;49.388;11.350;2023-04-25T05:50:05;5.57;;;4.33;;
11139;SDS011;5624;49.388;11.350;2023-04-25T05:52:31;6.70;;;4.30;;
11139;SDS011;5624;49.388;11.350;2023-04-25T05:54:57;5.60;;;4.00;;
11139;SDS011;5624;49.388;11.350;2023-04-25T05:57:23;5.23;;;4.20;;
11139;SDS011;5624;49.388;11.350;2023-04-25T05:59:50;5.60;;;4.00;;
11139;SDS011;5624;49.388;11.350;2023-04-25T06:02:16;6.13;;;4.60;;
11139;SDS011;5624;49.388;11.350;2023-04-25T06:04:42;6.77;;;4.47;;
11139;SDS011;5624;49.388;11.350;2023-04-25T06:07:08;6.10;;;4.00;;
11139;SDS011;5624;49.388;11.350;2023-04-25T06:09:33;7.37;;;4.60;;
11139;SDS011;5624;49.388;11.350;2023-04-25T06:11:59;5.73;;;4.40;;
11139;SDS011;5624;49.388;11.350;2023-04-25T06:14:25;7.60;;;5.23;;
11139;SDS011;5624;49.388;11.350;2023-04-25T06:16:51;7.50;;;5.03;;
11139;SDS011;5624;49.388;11.350;2023-04-25T06:19:17;6.03;;;4.67;;
11139;SDS011;5624;49.388;11.350;2023-04-25T06:21:43;5.77;;;4.23;;
11139;SDS011;5624;49.388;11.350;2023-04-25T06:24:09;10.27;;;5.43;;
11139;SDS011;5624;49.388;11.350;2023-04-25T06:26:35;6.63;;;5.17;;
11139;SDS011;5624;49.388;11.350;2023-04-25T06:29:01;5.83;;;5.00;;
11139;SDS011;5624;49.388;11.350;2023-04-25T06:31:26;7.47;;;5.07;;
11139;SDS011;5624;49.388;11.350;2023-04-25T06:33:53;6.27;;;5.20;;
11139;SDS011;5624;49.388;11.350;2023-04-25T06:36:20;7.50;;;5.20;;
11139;SDS011;5624;49.388;11.350;2023-04-25T06:38:50;8.03;;;5.53;;
11139;SDS011;5624;49.388;11.350;2023-04-25T06:41:16;7.20;;;5.20;;
11139;SDS011;5624;49.388;11.350;2023-04-25T06:43:41;10.20;;;5.57;;
11139;SDS011;5624;49.388;11.350;2023-04-25T06:46:07;11.30;;;6.03;;
11139;SDS011;5624;49.388;11.350;2023-04-25T06:48:32;7.20;;;5.80;;
11139;SDS011;5624;49.388;11.350;2023-04-25T06:50:59;7.13;;;5.43;;
11139;SDS011;5624;49.388;11.350;2023-04-25T06:53:24;6.33;;;5.30;;
11139;SDS011;5624;49.388;11.350;2023-04-25T06:55:50;8.03;;;5.73;;
11139;SDS011;5624;49.388;11.350;2023-04-25T06:58:15;7.90;;;5.93;;
11139;SDS011;5624;49.388;11.350;2023-04-25T07:00:41;8.57;;;6.07;;
11139;SDS011;5624;49.388;11.350;2023-04-25T07:03:07;7.73;;;5.57;;
11139;SDS011;5624;49.388;11.350;2023-04-25T07:05:32;8.57;;;5.63;;
11139;SDS011;5624;49.388;11.350;2023-04-25T07:07:58;6.87;;;5.57;;
11139;SDS011;5624;49.388;11.350;2023-04-25T07:10:25;8.73;;;6.87;;
11139;SDS011;5624;49.388;11.350;2023-04-25T07:12:50;8.23;;;6.30;;
11139;SDS011;5624;49.388;11.350;2023-04-25T07:15:16;10.30;;;7.37;;
11139;SDS011;5624;49.388;11.350;2023-04-25T07:17:42;9.50;;;6.33;;
11139;SDS011;5624;49.388;11.350;2023-04-25T07:20:08;9.97;;;6.27;;
11139;SDS011;5624;49.388;11.350;2023-04-25T07:22:34;9.20;;;6.33;;
11139;SDS011;5624;49.388;11.350;2023-04-25T07:25:00;7.97;;;6.03;;
11139;SDS011;5624;49.388;11.350;2023-04-25T07:27:26;9.00;;;6.23;;
11139;SDS011;5624;49.388;11.350;2023-04-25T07:29:51;11.70;;;6.70;;
11139;SDS011;5624;49.388;11.350;2023-04-25T07:32:17;9.13;;;6.23;;
11139;SDS011;5624;49.388;11.350;2023-04-25T07:34:43;8.10;;;5.90;;
11139;SDS011;5624;49.388;11.350;2023-04-25T07:37:08;9.63;;;5.97;;
11139;SDS011;5624;49.388;11.350;2023-04-25T07:39:34;8.80;;;6.03;;
11139;SDS011;5624;49.388;11.350;2023-04-25T07:42:00;8.13;;;6.13;;
11139;SDS011;5624;49.388;11.350;2023-04-25T07:44:27;7.80;;;5.90;;
11139;SDS011;5624;49.388;11.350;2023-04-25T07:46:52;7.57;;;5.50;;
11139;SDS011;5624;49.388;11.350;2023-04-25T07:49:18;14.03;;;7.67;;
11139;SDS011;5624;49.388;11.350;2023-04-25T07:51:44;9.57;;;6.67;;
11139;SDS011;5624;49.388;11.350;2023-04-25T07:54:10;9.90;;;6.43;;
11139;SDS011;5624;49.388;11.350;2023-04-25T07:56:39;9.17;;;6.10;;
11139;SDS011;5624;49.388;11.350;2023-04-25T07:59:05;12.20;;;6.40;;
11139;SDS011;5624;49.388;11.350;2023-04-25T08:01:31;10.97;;;6.83;;
11139;SDS011;5624;49.388;11.350;2023-04-25T08:03:56;9.63;;;6.50;;
11139;SDS011;5624;49.388;11.350;2023-04-25T08:06:22;8.37;;;6.23;;
11139;SDS011;5624;49.388;11.350;2023-04-25T08:08:47;8.37;;;5.67;;
11139;SDS011;5624;49.388;11.350;2023-04-25T08:11:13;6.83;;;4.53;;
11139;SDS011;5624;49.388;11.350;2023-04-25T08:13:39;4.90;;;3.50;;
11139;SDS011;5624;49.388;11.350;2023-04-25T08:16:04;4.60;;;3.17;;
11139;SDS011;5624;49.388;11.350;2023-04-25T08:18:30;3.87;;;3.00;;
11139;SDS011;5624;49.388;11.350;2023-04-25T08:20:56;4.47;;;3.37;;
11139;SDS011;5624;49.388;11.350;2023-04-25T08:23:21;3.57;;;2.73;;
11139;SDS011;5624;49.388;11.350;2023-04-25T08:25:47;3.77;;;2.90;;
11139;SDS011;5624;49.388;11.350;2023-04-25T08:28:12;8.70;;;2.57;;
11139;SDS011;5624;49.388;11.350;2023-04-25T08:30:38;6.30;;;3.00;;
11139;SDS011;5624;49.388;11.350;2023-04-25T08:33:05;4.53;;;4.10;;
11139;SDS011;5624;49.388;11.350;2023-04-25T08:35:31;5.23;;;3.27;;
11139;SDS011;5624;49.388;11.350;2023-04-25T08:37:58;5.47;;;2.93;;
11139;SDS011;5624;49.388;11.350;2023-04-25T08:40:23;3.87;;;2.60;;
11139;SDS011;5624;49.388;11.350;2023-04-25T08:42:55;4.27;;;2.57;;
11139;SDS011;5624;49.388;11.350;2023-04-25T08:45:22;3.40;;;2.87;;
11139;SDS011;5624;49.388;11.350;2023-04-25T08:47:50;5.80;;;3.07;;
11139;SDS011;5624;49.388;11.350;2023-04-25T08:50:18;4.73;;;3.03;;
11139;SDS011;5624;49.388;11.350;2023-04-25T08:52:46;4.77;;;2.60;;
11139;SDS011;5624;49.388;11.350;2023-04-25T08:55:13;5.10;;;2.77;;
11139;SDS011;5624;49.388;11.350;2023-04-25T08:57:40;4.37;;;2.43;;
11139;SDS011;5624;49.388;11.350;2023-04-25T09:00:08;6.43;;;3.03;;
11139;SDS011;5624;49.388;11.350;2023-04-25T09:02:38;4.43;;;2.70;;
11139;SDS011;5624;49.388;11.350;2023-04-25T09:05:04;5.37;;;2.60;;
11139;SDS011;5624;49.388;11.350;2023-04-25T09:07:31;4.70;;;2.90;;
11139;SDS011;5624;49.388;11.350;2023-04-25T09:09:57;3.57;;;2.80;;
11139;SDS011;5624;49.388;11.350;2023-04-25T09:12:26;3.57;;;2.50;;
11139;SDS011;5624;49.388;11.350;2023-04-25T09:17:32;4.33;;;2.77;;
11139;SDS011;5624;49.388;11.350;2023-04-25T09:20:11;5.77;;;2.87;;
11139;SDS011;5624;49.388;11.350;2023-04-25T09:22:38;6.23;;;3.57;;
11139;SDS011;5624;49.388;11.350;2023-04-25T09:25:13;5.20;;;3.37;;
11139;SDS011;5624;49.388;11.350;2023-04-25T09:27:51;5.97;;;3.87;;
11139;SDS011;5624;49.388;11.350;2023-04-25T09:30:18;8.00;;;4.37;;
11139;SDS011;5624;49.388;11.350;2023-04-25T09:32:56;5.50;;;3.27;;
11139;SDS011;5624;49.388;11.350;2023-04-25T09:35:23;5.27;;;3.30;;
11139;SDS011;5624;49.388;11.350;2023-04-25T09:37:50;5.45;;;3.78;;
11139;SDS011;5624;49.388;11.350;2023-04-25T09:40:15;5.90;;;4.28;;
11139;SDS011;5624;49.388;11.350;2023-04-25T09:42:43;3.65;;;3.22;;
11139;SDS011;5624;49.388;11.350;2023-04-25T09:45:09;4.63;;;3.53;;
11139;SDS011;5624;49.388;11.350;2023-04-25T09:47:38;4.77;;;3.57;;
11139;SDS011;5624;49.388;11.350;2023-04-25T09:50:05;5.23;;;3.57;;
11139;SDS011;5624;49.388;11.350;2023-04-25T09:52:40;5.67;;;3.60;;
11139;SDS011;5624;49.388;11.350;2023-04-25T09:55:05;5.53;;;3.67;;
11139;SDS011;5624;49.388;11.350;2023-04-25T09:57:31;5.37;;;3.40;;
11139;SDS011;5624;49.388;11.350;2023-04-25T09:59:57;5.32;;;3.42;;
11139;SDS011;5624;49.388;11.350;2023-04-25T10:02:26;5.55;;;3.47;;
11139;SDS011;5624;49.388;11.350;2023-04-25T10:04:53;4.97;;;3.25;;
11139;SDS011;5624;49.388;11.350;2023-04-25T10:07:23;4.18;;;3.10;;
11139;SDS011;5624;49.388;11.350;2023-04-25T10:10:01;5.28;;;3.60;;
11139;SDS011;5624;49.388;11.350;2023-04-25T10:12:28;6.82;;;2.90;;
11139;SDS011;5624;49.388;11.350;2023-04-25T10:14:56;4.28;;;2.53;;
11139;SDS011;5624;49.388;11.350;2023-04-25T10:17:23;4.65;;;2.58;;
11139;SDS011;5624;49.388;11.350;2023-04-25T10:19:49;4.60;;;2.88;;
11139;SDS011;5624;49.388;11.350;2023-04-25T10:22:35;4.72;;;2.53;;
11139;SDS011;5624;49.388;11.350;2023-04-25T10:25:09;3.70;;;2.70;;
11139;SDS011;5624;49.388;11.350;2023-04-25T10:27:36;2.90;;;2.60;;
11139;SDS011;5624;49.388;11.350;2023-04-25T10:30:03;3.63;;;2.67;;
11139;SDS011;5624;49.388;11.350;2023-04-25T10:32:31;4.32;;;2.78;;
11139;SDS011;5624;49.388;11.350;2023-04-25T10:35:13;7.45;;;2.80;;
11139;SDS011;5624;49.388;11.350;2023-04-25T10:38:05;4.45;;;2.65;;
11139;SDS011;5624;49.388;11.350;2023-04-25T10:40:35;4.82;;;2.30;;
11139;SDS011;5624;49.388;11.350;2023-04-25T10:45:59;6.55;;;3.00;;
11139;SDS011;5624;49.388;11.350;2023-04-25T10:48:25;5.05;;;3.17;;
11139;SDS011;5624;49.388;11.350;2023-04-25T10:53:33;6.13;;;3.40;;
11139;SDS011;5624;49.388;11.350;2023-04-25T10:55:59;4.90;;;2.80;;
11139;SDS011;5624;49.388;11.350;2023-04-25T10:58:25;6.47;;;2.88;;
11139;SDS011;5624;49.388;11.350;2023-04-25T11:00:51;6.10;;;3.03;;
11139;SDS011;5624;49.388;11.350;2023-04-25T11:03:17;5.05;;;2.88;;
11139;SDS011;5624;49.388;11.350;2023-04-25T11:05:46;6.00;;;2.90;;
11139;SDS011;5624;49.388;11.350;2023-04-25T11:08:14;4.47;;;2.67;;
11139;SDS011;5624;49.388;11.350;2023-04-25T11:10:46;3.70;;;2.30;;
11139;SDS011;5624;49.388;11.350;2023-04-25T11:13:12;2.90;;;2.00;;
11139;SDS011;5624;49.388;11.350;2023-04-25T11:15:38;4.70;;;2.47;;
11139;SDS011;5624;49.388;11.350;2023-04-25T11:18:03;3.70;;;2.37;;
11139;SDS011;5624;49.388;11.350;2023-04-25T11:20:29;3.90;;;1.97;;
11139;SDS011;5624;49.388;11.350;2023-04-25T11:22:56;3.90;;;2.07;;
11139;SDS011;5624;49.388;11.350;2023-04-25T11:25:24;2.30;;;1.27;;
11139;SDS011;5624;49.388;11.350;2023-04-25T11:27:54;3.30;;;2.00;;
11139;SDS011;5624;49.388;11.350;2023-04-25T11:30:24;6.53;;;2.27;;
11139;SDS011;5624;49.388;11.350;2023-04-25T11:32:51;3.40;;;1.70;;
11139;SDS011;5624;49.388;11.350;2023-04-25T11:35:18;3.07;;;1.57;;
11139;SDS011;5624;49.388;11.350;2023-04-25T11:37:45;2.73;;;1.87;;
11139;SDS011;5624;49.388;11.350;2023-04-25T11:40:11;1.87;;;1.70;;
11139;SDS011;5624;49.388;11.350;2023-04-25T11:42:37;4.43;;;1.80;;
11139;SDS011;5624;49.388;11.350;2023-04-25T11:45:10;4.63;;;2.00;;
11139;SDS011;5624;49.388;11.350;2023-04-25T11:47:36;5.37;;;2.13;;
11139;SDS011;5624;49.388;11.350;2023-04-25T11:50:03;4.10;;;2.07;;
11139;SDS011;5624;49.388;11.350;2023-04-25T11:55:10;5.33;;;2.30;;
11139;SDS011;5624;49.388;11.350;2023-04-25T11:57:38;2.93;;;1.70;;
11139;SDS011;5624;49.388;11.350;2023-04-25T12:00:12;3.80;;;2.37;;
11139;SDS011;5624;49.388;11.350;2023-04-25T12:02:42;3.33;;;2.00;;
11139;SDS011;5624;49.388;11.350;2023-04-25T12:05:10;5.07;;;1.97;;
11139;SDS011;5624;49.388;11.350;2023-04-25T12:07:36;8.87;;;2.10;;
11139;SDS011;5624;49.388;11.350;2023-04-25T12:10:06;3.33;;;1.97;;
11139;SDS011;5624;49.388;11.350;2023-04-25T12:12:34;2.90;;;1.67;;
11139;SDS011;5624;49.388;11.350;2023-04-25T12:17:46;2.73;;;1.87;;
11139;SDS011;5624;49.388;11.350;2023-04-25T12:20:17;4.87;;;1.90;;
11139;SDS011;5624;49.388;11.350;2023-04-25T12:22:49;4.60;;;2.20;;
11139;SDS011;5624;49.388;11.350;2023-04-25T12:28:17;2.77;;;1.57;;
11139;SDS011;5624;49.388;11.350;2023-04-25T12:30:54;4.27;;;1.80;;
11139;SDS011;5624;49.388;11.350;2023-04-25T12:33:31;2.83;;;1.50;;
11139;SDS011;5624;49.388;11.350;2023-04-25T12:36:01;3.17;;;1.60;;
11139;SDS011;5624;49.388;11.350;2023-04-25T12:38:37;2.83;;;1.60;;
11139;SDS011;5624;49.388;11.350;2023-04-25T12:41:04;3.17;;;1.73;;
11139;SDS011;5624;49.388;11.350;2023-04-25T12:43:30;2.73;;;1.40;;
11139;SDS011;5624;49.388;11.350;2023-04-25T12:45:55;3.60;;;1.40;;
11139;SDS011;5624;49.388;11.350;2023-04-25T12:48:21;3.23;;;1.70;;
11139;SDS011;5624;49.388;11.350;2023-04-25T12:50:48;3.30;;;1.70;;
11139;SDS011;5624;49.388;11.350;2023-04-25T12:53:15;2.77;;;1.40;;
11139;SDS011;5624;49.388;11.350;2023-04-25T12:55:41;3.37;;;1.40;;
11139;SDS011;5624;49.388;11.350;2023-04-25T12:58:06;3.00;;;1.73;;
11139;SDS011;5624;49.388;11.350;2023-04-25T13:00:32;2.47;;;1.40;;
11139;SDS011;5624;49.388;11.350;2023-04-25T13:02:58;1.40;;;1.30;;
11139;SDS011;5624;49.388;11.350;2023-04-25T13:05:24;2.97;;;1.20;;
11139;SDS011;5624;49.388;11.350;2023-04-25T13:07:50;2.13;;;1.20;;
11139;SDS011;5624;49.388;11.350;2023-04-25T13:10:16;2.30;;;1.40;;
11139;SDS011;5624;49.388;11.350;2023-04-25T13:12:42;1.27;;;1.10;;
11139;SDS011;5624;49.388;11.350;2023-04-25T13:15:08;1.97;;;1.33;;
11139;SDS011;5624;49.388;11.350;2023-04-25T13:17:36;2.87;;;1.40;;
11139;SDS011;5624;49.388;11.350;2023-04-25T13:20:03;2.57;;;1.70;;
11139;SDS011;5624;49.388;11.350;2023-04-25T13:22:33;2.83;;;1.70;;
11139;SDS011;5624;49.388;11.350;2023-04-25T13:25:02;2.37;;;1.57;;
11139;SDS011;5624;49.388;11.350;2023-04-25T13:27:28;3.73;;;1.60;;
11139;SDS011;5624;49.388;11.350;2023-04-25T13:29:53;1.47;;;1.33;;
11139;SDS011;5624;49.388;11.350;2023-04-25T13:32:19;1.93;;;1.57;;
11139;SDS011;5624;49.388;11.350;2023-04-25T13:34:45;1.47;;;1.37;;
11139;SDS011;5624;49.388;11.350;2023-04-25T13:37:10;1.87;;;1.77;;
11139;SDS011;5624;49.388;11.350;2023-04-25T13:39:36;2.40;;;1.43;;
11139;SDS011;5624;49.388;11.350;2023-04-25T13:42:02;2.27;;;1.50;;
11139;SDS011;5624;49.388;11.350;2023-04-25T13:44:28;3.50;;;2.03;;
11139;SDS011;5624;49.388;11.350;2023-04-25T13:46:53;2.87;;;1.70;;
11139;SDS011;5624;49.388;11.350;2023-04-25T13:49:19;2.07;;;1.60;;
11139;SDS011;5624;49.388;11.350;2023-04-25T13:51:45;3.50;;;1.60;;
11139;SDS011;5624;49.388;11.350;2023-04-25T13:54:10;1.70;;;1.60;;
11139;SDS011;5624;49.388;11.350;2023-04-25T13:56:36;2.60;;;1.80;;
11139;SDS011;5624;49.388;11.350;2023-04-25T13:59:02;4.67;;;1.83;;
11139;SDS011;5624;49.388;11.350;2023-04-25T14:01:27;3.57;;;2.03;;
11139;SDS011;5624;49.388;11.350;2023-04-25T14:03:55;2.43;;;1.60;;
11139;SDS011;5624;49.388;11.350;2023-04-25T14:06:21;1.60;;;1.50;;
11139;SDS011;5624;49.388;11.350;2023-04-25T14:08:49;3.07;;;1.70;;
11139;SDS011;5624;49.388;11.350;2023-04-25T14:11:15;2.83;;;1.70;;
11139;SDS011;5624;49.388;11.350;2023-04-25T14:13:43;1.90;;;1.60;;
11139;SDS011;5624;49.388;11.350;2023-04-25T14:16:09;4.07;;;1.60;;
11139;SDS011;5624;49.388;11.350;2023-04-25T14:18:34;3.47;;;1.87;;
11139;SDS011;5624;49.388;11.350;2023-04-25T14:21:00;5.73;;;2.20;;
11139;SDS011;5624;49.388;11.350;2023-04-25T14:23:26;4.00;;;2.13;;
11139;SDS011;5624;49.388;11.350;2023-04-25T14:25:51;3.37;;;1.97;;
11139;SDS011;5624;49.388;11.350;2023-04-25T14:28:17;2.43;;;1.73;;
11139;SDS011;5624;49.388;11.350;2023-04-25T14:30:43;2.70;;;1.97;;
11139;SDS011;5624;49.388;11.350;2023-04-25T14:33:08;6.40;;;2.00;;
11139;SDS011;5624;49.388;11.350;2023-04-25T14:35:35;5.13;;;2.30;;
11139;SDS011;5624;49.388;11.350;2023-04-25T14:38:00;2.17;;;1.60;;
11139;SDS011;5624;49.388;11.350;2023-04-25T14:40:26;2.83;;;1.70;;
11139;SDS011;5624;49.388;11.350;2023-04-25T14:42:51;4.80;;;1.97;;
11139;SDS011;5624;49.388;11.350;2023-04-25T14:45:17;4.30;;;2.23;;
11139;SDS011;5624;49.388;11.350;2023-04-25T14:47:43;2.33;;;1.80;;
11139;SDS011;5624;49.388;11.350;2023-04-25T14:50:08;5.50;;;2.10;;
11139;SDS011;5624;49.388;11.350;2023-04-25T14:52:35;3.00;;;2.10;;
11139;SDS011;5624;49.388;11.350;2023-04-25T14:55:01;3.40;;;1.70;;
11139;SDS011;5624;49.388;11.350;2023-04-25T14:57:30;3.63;;;2.13;;
11139;SDS011;5624;49.388;11.350;2023-04-25T14:59:57;3.80;;;2.20;;
11139;SDS011;5624;49.388;11.350;2023-04-25T15:02:23;4.60;;;1.80;;